Time;durP1;ratioP1;P1;durP2;ratioP2;P2;SDS_P1;SDS_P2;PMS_P1;PMS_P2;Temp;Humidity;BMP_temperature;BMP_pressure;BME280_temperature;BME280_humidity;BME280_pressure;Samples;Min_cycle;Max_cycle;Signal;HPM_P1;HPM_P2
2023/05/28 00:00:01;;;;;;;9.98;5.75;;;18.80;90.30;;;;;;4997525;28;20222;-39
2023/05/28 00:02:38;;;;;;;9.00;5.57;;;18.80;90.40;;;;;;4983364;28;20240;-38
2023/05/28 00:05:10;;;;;;;7.18;5.10;;;18.70;90.40;;;;;;4982988;28;20233;-38
2023/05/28 00:07:41;;;;;;;12.60;5.95;;;18.70;90.40;;;;;;4983015;28;20206;-39
2023/05/28 00:10:09;;;;;;;11.40;5.85;;;18.60;90.40;;;;;;4983325;28;20202;-38
2023/05/28 00:12:41;;;;;;;12.85;6.32;;;18.60;90.40;;;;;;4994709;28;20565;-39
2023/05/28 00:15:09;;;;;;;10.95;5.90;;;18.50;90.40;;;;;;5002364;28;20244;-39
2023/05/28 00:17:42;;;;;;;11.45;6.10;;;18.50;90.40;;;;;;4985549;28;20292;-38
2023/05/28 00:20:10;;;;;;;11.13;5.68;;;18.40;90.40;;;;;;5001161;28;20197;-38
2023/05/28 00:22:39;;;;;;;14.55;6.30;;;18.40;90.50;;;;;;5002403;28;20213;-38
2023/05/28 00:25:07;;;;;;;10.30;6.18;;;18.40;90.40;;;;;;5001505;28;20585;-38
2023/05/28 00:27:34;;;;;;;13.75;6.30;;;18.40;90.50;;;;;;5000450;28;20205;-38
2023/05/28 00:30:02;;;;;;;14.43;6.38;;;18.40;90.50;;;;;;5001368;28;20232;-38
2023/05/28 00:32:29;;;;;;;11.30;6.32;;;18.40;90.50;;;;;;4997307;28;20197;-38
2023/05/28 00:34:56;;;;;;;15.48;6.40;;;18.40;90.50;;;;;;4986774;28;20685;-38
2023/05/28 00:37:24;;;;;;;11.70;6.43;;;18.30;90.60;;;;;;4999345;28;20273;-38
2023/05/28 00:39:51;;;;;;;9.57;5.78;;;18.30;90.50;;;;;;5003576;28;20228;-38
2023/05/28 00:42:20;;;;;;;11.95;6.38;;;18.20;90.40;;;;;;4999906;28;20259;-38
2023/05/28 00:44:48;;;;;;;9.90;5.97;;;18.20;90.50;;;;;;4993378;28;20301;-38
2023/05/28 00:47:15;;;;;;;12.52;6.72;;;18.20;90.50;;;;;;4998401;28;20226;-38
2023/05/28 00:49:45;;;;;;;10.20;6.15;;;18.10;90.50;;;;;;4997690;28;20236;-38
2023/05/28 00:52:12;;;;;;;10.40;6.38;;;18.10;90.60;;;;;;5004032;28;20213;-38
2023/05/28 00:54:42;;;;;;;12.52;7.00;;;18.00;90.60;;;;;;5006100;28;20586;-38
2023/05/28 00:57:12;;;;;;;11.75;6.60;;;18.00;90.60;;;;;;5003886;28;20754;-38
2023/05/28 00:59:39;;;;;;;12.95;6.55;;;17.90;90.60;;;;;;5003422;28;20237;-38
2023/05/28 01:02:07;;;;;;;9.02;6.00;;;17.80;90.60;;;;;;4996840;28;20209;-39
2023/05/28 01:04:36;;;;;;;11.73;6.55;;;17.80;90.60;;;;;;4994666;28;20305;-38
2023/05/28 01:07:04;;;;;;;14.23;6.85;;;17.70;90.60;;;;;;4986082;28;20672;-38
2023/05/28 01:09:33;;;;;;;10.65;7.10;;;17.70;90.60;;;;;;4982220;28;20240;-38
2023/05/28 01:12:06;;;;;;;13.35;6.30;;;17.70;90.70;;;;;;5005584;28;20193;-37
2023/05/28 01:14:37;;;;;;;13.07;6.13;;;17.70;90.60;;;;;;5004455;28;20297;-38
2023/05/28 01:17:07;;;;;;;11.80;6.35;;;17.70;90.70;;;;;;4991792;28;20208;-39
2023/05/28 01:19:35;;;;;;;11.20;6.25;;;17.70;90.80;;;;;;5002656;28;20210;-37
2023/05/28 01:22:07;;;;;;;10.20;6.78;;;17.70;90.80;;;;;;5003234;28;20222;-36
2023/05/28 01:24:40;;;;;;;13.60;7.15;;;17.70;90.90;;;;;;4991605;28;20241;-37
2023/05/28 01:27:10;;;;;;;15.77;6.70;;;17.70;90.90;;;;;;5005127;28;20225;-39
2023/05/28 01:29:37;;;;;;;12.07;6.75;;;17.60;90.90;;;;;;4978563;28;20265;-39
2023/05/28 01:32:08;;;;;;;16.63;7.95;;;17.60;90.90;;;;;;4982951;28;20280;-36
2023/05/28 01:34:35;;;;;;;11.55;6.97;;;17.60;90.90;;;;;;4983021;28;20280;-36
2023/05/28 01:37:09;;;;;;;14.70;6.85;;;17.60;91.00;;;;;;4983624;28;20202;-40
2023/05/28 01:39:44;;;;;;;13.45;7.28;;;17.60;91.00;;;;;;5001522;28;20696;-37
2023/05/28 01:42:12;;;;;;;13.95;6.90;;;17.50;91.00;;;;;;4983680;28;20210;-37
2023/05/28 01:44:45;;;;;;;11.25;6.97;;;17.50;91.40;;;;;;4993960;28;20210;-37
2023/05/28 01:47:17;;;;;;;14.52;7.65;;;17.50;91.10;;;;;;4988318;28;20198;-36
2023/05/28 01:49:45;;;;;;;11.80;6.90;;;17.50;91.20;;;;;;4987348;28;20230;-37
2023/05/28 01:52:15;;;;;;;14.82;7.05;;;17.40;91.10;;;;;;5003529;28;20288;-36
2023/05/28 01:54:43;;;;;;;13.98;7.13;;;17.30;91.00;;;;;;4984335;28;20775;-36
2023/05/28 01:57:12;;;;;;;14.95;7.38;;;17.30;91.40;;;;;;4991370;28;20275;-36
2023/05/28 01:59:42;;;;;;;10.73;6.95;;;17.20;91.20;;;;;;4993754;28;20668;-37
2023/05/28 02:02:12;;;;;;;16.15;7.72;;;17.20;91.30;;;;;;4978437;28;20213;-36
2023/05/28 02:04:42;;;;;;;13.20;8.00;;;17.10;93.40;;;;;;4983762;28;20308;-37
2023/05/28 02:07:12;;;;;;;14.70;7.80;;;17.10;91.60;;;;;;4986928;28;20214;-37
2023/05/28 02:09:42;;;;;;;11.13;7.18;;;17.00;91.90;;;;;;4984763;28;20357;-37
2023/05/28 02:12:09;;;;;;;14.27;7.35;;;17.00;91.50;;;;;;4985238;28;20238;-37
2023/05/28 02:14:39;;;;;;;14.48;7.93;;;16.90;91.30;;;;;;4982853;28;20214;-37
2023/05/28 02:17:06;;;;;;;13.80;7.65;;;16.90;91.40;;;;;;4984285;28;20276;-37
2023/05/28 02:19:36;;;;;;;10.88;7.35;;;16.80;91.40;;;;;;4992956;28;20202;-37
2023/05/28 02:22:10;;;;;;;12.75;8.10;;;16.80;91.30;;;;;;5004078;28;20205;-37
2023/05/28 02:24:38;;;;;;;15.90;8.00;;;16.70;91.40;;;;;;5003891;28;20619;-37
2023/05/28 02:27:09;;;;;;;10.88;7.88;;;16.70;91.30;;;;;;5004176;28;20263;-37
2023/05/28 02:29:38;;;;;;;16.02;8.77;;;16.70;91.60;;;;;;4991824;28;20340;-37
2023/05/28 02:32:06;;;;;;;12.82;7.95;;;16.60;91.70;;;;;;4991004;28;20619;-37
2023/05/28 02:34:35;;;;;;;13.23;8.00;;;16.60;91.60;;;;;;4989925;28;20313;-37
2023/05/28 02:37:05;;;;;;;15.45;8.75;;;16.60;91.70;;;;;;4982342;28;20202;-36
2023/05/28 02:39:32;;;;;;;14.55;7.85;;;16.60;91.90;;;;;;4985362;28;20267;-37
2023/05/28 02:42:03;;;;;;;19.77;8.80;;;16.60;91.70;;;;;;4992526;28;20559;-37
2023/05/28 02:44:33;;;;;;;14.73;9.02;;;16.50;91.70;;;;;;5002945;28;20217;-37
2023/05/28 02:47:00;;;;;;;15.82;8.80;;;16.50;91.90;;;;;;4996885;28;20201;-37
2023/05/28 02:49:30;;;;;;;15.52;8.05;;;16.50;91.80;;;;;;4994826;28;20230;-39
2023/05/28 02:51:59;;;;;;;14.02;8.60;;;16.50;91.90;;;;;;4989336;28;20206;-38
2023/05/28 02:54:26;;;;;;;13.50;8.60;;;16.50;91.80;;;;;;5003516;28;20288;-38
2023/05/28 02:56:54;;;;;;;15.38;8.95;;;16.50;91.80;;;;;;4992335;28;20262;-37
2023/05/28 02:59:21;;;;;;;14.05;8.05;;;16.50;91.80;;;;;;4984920;28;20218;-37
2023/05/28 03:01:48;;;;;;;13.15;8.73;;;16.40;91.90;;;;;;5000629;28;20712;-38
2023/05/28 03:04:20;;;;;;;15.00;8.30;;;16.50;92.10;;;;;;4986810;28;20265;-38
2023/05/28 03:06:50;;;;;;;16.52;8.73;;;16.40;92.10;;;;;;4986637;28;20205;-37
2023/05/28 03:09:19;;;;;;;18.17;9.32;;;16.40;92.10;;;;;;5001661;28;20287;-37
2023/05/28 03:11:46;;;;;;;13.65;8.00;;;16.40;92.00;;;;;;4986465;28;20218;-39
2023/05/28 03:14:14;;;;;;;14.98;8.73;;;16.40;91.90;;;;;;4983901;28;20202;-37
2023/05/28 03:16:41;;;;;;;14.60;8.73;;;16.40;92.00;;;;;;4983388;28;20221;-38
2023/05/28 03:19:11;;;;;;;16.60;9.60;;;16.30;92.20;;;;;;5000536;28;20680;-37
2023/05/28 03:21:43;;;;;;;15.50;8.52;;;16.30;92.20;;;;;;4982848;28;20210;-37
2023/05/28 03:24:12;;;;;;;13.93;8.40;;;16.30;92.20;;;;;;4984464;28;20435;-39
2023/05/28 03:26:46;;;;;;;11.77;7.68;;;16.20;92.10;;;;;;4997636;28;20650;-39
2023/05/28 03:29:16;;;;;;;16.60;9.52;;;16.20;92.30;;;;;;4987465;28;20232;-38
2023/05/28 03:31:50;;;;;;;14.90;8.60;;;16.20;92.30;;;;;;4996866;28;20202;-38
2023/05/28 03:34:21;;;;;;;13.07;8.48;;;16.10;92.30;;;;;;5002274;28;20587;-38
2023/05/28 03:36:48;;;;;;;15.52;9.02;;;16.10;92.30;;;;;;4985606;28;20240;-38
2023/05/28 03:39:16;;;;;;;14.50;9.40;;;16.10;92.50;;;;;;4994005;28;20301;-38
2023/05/28 03:41:49;;;;;;;16.10;9.35;;;16.10;92.40;;;;;;4981841;28;20257;-38
2023/05/28 03:44:18;;;;;;;14.73;9.07;;;16.10;92.70;;;;;;4982545;28;20309;-38
2023/05/28 03:46:48;;;;;;;16.13;9.00;;;16.10;92.60;;;;;;4986688;28;20295;-38
2023/05/28 03:49:17;;;;;;;15.52;9.15;;;16.10;92.50;;;;;;4995209;28;20309;-38
2023/05/28 03:51:45;;;;;;;16.45;8.63;;;16.10;92.60;;;;;;4995849;28;20205;-38
2023/05/28 03:54:14;;;;;;;14.98;8.75;;;16.10;92.90;;;;;;4990212;28;20572;-38
2023/05/28 03:56:41;;;;;;;18.73;9.63;;;16.10;92.40;;;;;;4990957;28;20221;-38
2023/05/28 03:59:14;;;;;;;14.25;8.73;;;16.00;92.50;;;;;;4985252;28;20324;-38
2023/05/28 04:01:41;;;;;;;17.17;9.38;;;16.00;92.60;;;;;;4989913;28;20279;-39
2023/05/28 04:04:08;;;;;;;16.92;9.63;;;16.00;92.50;;;;;;5002730;28;20220;-37
2023/05/28 04:06:36;;;;;;;14.77;8.88;;;16.00;92.70;;;;;;4986226;28;20301;-37
2023/05/28 04:09:04;;;;;;;15.57;9.55;;;16.00;92.70;;;;;;4985203;28;20227;-37
2023/05/28 04:11:37;;;;;;;16.05;8.73;;;16.00;92.80;;;;;;4995840;28;20311;-37
2023/05/28 04:14:04;;;;;;;16.67;9.07;;;16.00;92.80;;;;;;5005000;28;20224;-37
2023/05/28 04:16:32;;;;;;;14.45;8.80;;;16.00;92.70;;;;;;5006378;28;20276;-37
2023/05/28 04:19:00;;;;;;;17.85;8.77;;;16.00;92.60;;;;;;4989544;28;20241;-37
2023/05/28 04:21:32;;;;;;;16.40;9.38;;;16.00;92.90;;;;;;4986716;28;20223;-39
2023/05/28 04:24:05;;;;;;;15.07;9.32;;;16.00;92.80;;;;;;4986605;28;20206;-38
2023/05/28 04:26:36;;;;;;;14.40;9.20;;;16.00;92.80;;;;;;4985124;28;20206;-36
2023/05/28 04:29:05;;;;;;;14.55;9.85;;;16.00;93.00;;;;;;4984603;28;20226;-38
2023/05/28 04:31:35;;;;;;;16.08;9.05;;;16.00;92.90;;;;;;4986803;28;20218;-38
2023/05/28 04:34:03;;;;;;;17.50;10.30;;;16.00;93.20;;;;;;4968781;28;20778;-38
2023/05/28 04:36:36;;;;;;;18.40;10.35;;;16.00;93.30;;;;;;4986238;28;20698;-37
2023/05/28 04:39:06;;;;;;;14.65;9.30;;;16.00;93.10;;;;;;4986528;28;20286;-37
2023/05/28 04:41:34;;;;;;;19.55;10.38;;;16.00;93.60;;;;;;4986745;28;20770;-37
2023/05/28 04:44:01;;;;;;;15.82;9.25;;;16.00;93.20;;;;;;4985208;28;20206;-37
2023/05/28 04:46:33;;;;;;;15.15;9.98;;;16.00;93.20;;;;;;4989385;28;20765;-37
2023/05/28 04:49:04;;;;;;;16.92;10.10;;;16.00;93.50;;;;;;4989355;28;20225;-37
2023/05/28 04:51:32;;;;;;;16.15;10.63;;;16.00;93.60;;;;;;4994765;28;20221;-37
2023/05/28 04:54:02;;;;;;;15.88;9.23;;;16.00;93.50;;;;;;4984741;28;20198;-37
2023/05/28 04:56:29;;;;;;;17.23;9.88;;;16.10;93.50;;;;;;4994934;28;20283;-36
2023/05/28 04:58:59;;;;;;;16.13;9.88;;;16.10;93.40;;;;;;4990648;28;20198;-37
2023/05/28 05:01:27;;;;;;;16.42;10.48;;;16.10;93.50;;;;;;5001708;28;20210;-37
2023/05/28 05:03:55;;;;;;;16.13;9.88;;;16.10;93.50;;;;;;5005386;28;20267;-37
2023/05/28 05:06:24;;;;;;;15.45;9.93;;;16.10;93.60;;;;;;4989991;28;20210;-37
2023/05/28 05:08:56;;;;;;;16.90;11.23;;;16.10;94.00;;;;;;4991901;28;20551;-37
2023/05/28 05:11:26;;;;;;;18.63;10.77;;;16.10;94.00;;;;;;5005226;28;20205;-37
2023/05/28 05:13:53;;;;;;;19.30;12.02;;;16.10;93.80;;;;;;5002737;28;20221;-37
2023/05/28 05:16:22;;;;;;;17.65;10.57;;;16.10;94.30;;;;;;5005544;28;20679;-38
2023/05/28 05:18:52;;;;;;;17.35;11.30;;;16.20;93.90;;;;;;4995147;28;20579;-38
2023/05/28 05:21:24;;;;;;;18.23;11.18;;;16.20;93.90;;;;;;4994983;28;20221;-38
2023/05/28 05:23:52;;;;;;;17.02;10.65;;;16.20;94.00;;;;;;5003205;28;20832;-38
2023/05/28 05:26:19;;;;;;;16.83;10.63;;;16.20;94.00;;;;;;5004781;28;20216;-37
2023/05/28 05:28:51;;;;;;;21.25;11.35;;;16.30;93.90;;;;;;5002157;28;20267;-37
2023/05/28 05:31:18;;;;;;;17.98;10.75;;;16.30;94.20;;;;;;5003433;28;20719;-38
2023/05/28 05:33:50;;;;;;;17.60;10.73;;;16.30;94.00;;;;;;5003332;28;20289;-38
2023/05/28 05:36:17;;;;;;;16.98;10.50;;;16.30;93.90;;;;;;4997361;28;20199;-38
2023/05/28 05:38:49;;;;;;;14.05;9.82;;;16.30;94.00;;;;;;4979065;28;20218;-38
2023/05/28 05:41:18;;;;;;;16.02;10.60;;;16.40;94.30;;;;;;4978158;28;20636;-38
2023/05/28 05:43:46;;;;;;;17.05;10.98;;;16.40;94.10;;;;;;4992934;28;20872;-38
2023/05/28 05:46:15;;;;;;;15.27;10.30;;;16.40;94.10;;;;;;4982705;28;20233;-38
2023/05/28 05:48:44;;;;;;;17.13;10.48;;;16.50;94.20;;;;;;4985159;28;20333;-38
2023/05/28 05:51:16;;;;;;;16.08;10.07;;;16.50;94.30;;;;;;5003122;28;20605;-38
2023/05/28 05:53:49;;;;;;;15.63;10.55;;;16.50;94.10;;;;;;4982819;28;20756;-38
2023/05/28 05:56:16;;;;;;;18.38;11.55;;;16.60;94.20;;;;;;4997041;28;20390;-38
2023/05/28 05:58:45;;;;;;;15.82;9.95;;;16.60;94.60;;;;;;4991006;28;20603;-38
2023/05/28 06:01:16;;;;;;;16.88;11.00;;;16.60;94.40;;;;;;5003558;28;20354;-38
2023/05/28 06:03:47;;;;;;;21.60;11.05;;;16.60;94.40;;;;;;5001134;28;20209;-38
2023/05/28 06:06:14;;;;;;;20.52;11.25;;;16.70;94.50;;;;;;4998997;28;20596;-38
2023/05/28 06:08:43;;;;;;;18.15;11.50;;;16.70;94.40;;;;;;4998736;28;20202;-38
2023/05/28 06:11:14;;;;;;;16.15;11.10;;;16.70;94.80;;;;;;4996423;28;20769;-38
2023/05/28 06:13:41;;;;;;;20.33;11.32;;;16.70;94.60;;;;;;4998708;28;20728;-37
2023/05/28 06:16:12;;;;;;;18.38;10.65;;;16.80;94.60;;;;;;4983823;28;20217;-37
2023/05/28 06:18:42;;;;;;;18.27;11.45;;;16.80;94.60;;;;;;4967487;28;20218;-37
2023/05/28 06:21:11;;;;;;;15.82;10.70;;;16.80;94.80;;;;;;4985142;28;20202;-37
2023/05/28 06:23:41;;;;;;;13.98;10.48;;;16.80;94.60;;;;;;4985436;28;20593;-37
2023/05/28 06:26:10;;;;;;;17.42;11.20;;;16.90;94.70;;;;;;4984122;28;20225;-37
2023/05/28 06:28:40;;;;;;;20.95;11.10;;;16.90;94.60;;;;;;4985672;28;20539;-37
2023/05/28 06:31:11;;;;;;;20.08;10.95;;;17.00;94.70;;;;;;4997081;28;20248;-37
2023/05/28 06:33:38;;;;;;;17.65;10.40;;;17.00;94.70;;;;;;4998481;28;20249;-37
2023/05/28 06:36:06;;;;;;;17.85;11.07;;;17.10;94.70;;;;;;4987004;28;20229;-39
2023/05/28 06:38:38;;;;;;;16.25;10.93;;;17.10;94.70;;;;;;4988473;28;20209;-34
2023/05/28 06:41:06;;;;;;;13.98;9.90;;;17.10;94.90;;;;;;4997437;28;20213;-35
2023/05/28 06:43:33;;;;;;;14.93;10.27;;;17.20;95.00;;;;;;4994603;28;20221;-34
2023/05/28 06:46:03;;;;;;;19.20;11.10;;;17.20;94.80;;;;;;5002357;28;20524;-35
2023/05/28 06:48:36;;;;;;;18.50;10.85;;;17.30;95.20;;;;;;4986414;28;20229;-34
2023/05/28 06:51:08;;;;;;;20.48;10.85;;;17.30;95.50;;;;;;4983491;28;20230;-35
2023/05/28 06:53:35;;;;;;;17.42;10.63;;;17.30;95.00;;;;;;5009588;28;20218;-36
2023/05/28 06:56:02;;;;;;;18.23;10.52;;;17.30;95.60;;;;;;4996870;28;20206;-34
2023/05/28 06:58:34;;;;;;;17.92;10.48;;;17.40;95.30;;;;;;4982750;28;20632;-35
2023/05/28 07:01:03;;;;;;;19.60;11.48;;;17.40;95.40;;;;;;4994583;28;20213;-34
2023/05/28 07:03:30;;;;;;;21.25;10.80;;;17.40;95.40;;;;;;4982583;28;20573;-34
2023/05/28 07:05:59;;;;;;;17.20;10.55;;;17.50;95.50;;;;;;4982677;28;20206;-35
2023/05/28 07:08:29;;;;;;;18.15;10.93;;;17.50;95.50;;;;;;5001660;28;20580;-36
2023/05/28 07:11:02;;;;;;;16.73;10.63;;;17.50;95.50;;;;;;4995112;28;20233;-34
2023/05/28 07:13:31;;;;;;;16.20;9.73;;;17.60;95.50;;;;;;4996101;28;20253;-35
2023/05/28 07:16:00;;;;;;;19.70;11.25;;;17.60;95.40;;;;;;4983358;28;20217;-35
2023/05/28 07:18:28;;;;;;;16.50;10.40;;;17.70;95.70;;;;;;4988486;28;20438;-35
2023/05/28 07:21:00;;;;;;;14.77;9.05;;;17.70;95.60;;;;;;4987991;28;20210;-35
2023/05/28 07:23:28;;;;;;;17.67;9.98;;;17.80;95.50;;;;;;4999275;28;20537;-35
2023/05/28 07:25:55;;;;;;;17.10;10.48;;;17.90;95.70;;;;;;4999957;28;20245;-36
2023/05/28 07:28:23;;;;;;;15.25;9.43;;;17.90;96.40;;;;;;4994010;28;20201;-35
2023/05/28 07:30:56;;;;;;;13.00;9.27;;;17.90;95.90;;;;;;4993522;28;20276;-35
2023/05/28 07:33:26;;;;;;;16.48;10.35;;;18.00;95.90;;;;;;5001316;28;20236;-35
2023/05/28 07:35:53;;;;;;;15.57;9.88;;;18.10;96.00;;;;;;4993710;28;20224;-35
2023/05/28 07:38:23;;;;;;;15.88;10.25;;;18.10;96.00;;;;;;5001138;28;20643;-35
2023/05/28 07:40:50;;;;;;;19.52;10.68;;;18.20;96.20;;;;;;4992951;28;20290;-36
2023/05/28 07:43:23;;;;;;;19.15;9.68;;;18.30;96.30;;;;;;4984936;28;20707;-35
2023/05/28 07:45:50;;;;;;;14.70;9.40;;;18.40;96.10;;;;;;4986313;28;20217;-35
2023/05/28 07:48:17;;;;;;;13.68;9.15;;;18.40;96.20;;;;;;4976267;28;20581;-36
2023/05/28 07:50:45;;;;;;;15.15;9.65;;;18.50;96.10;;;;;;4986342;28;20214;-37
2023/05/28 07:53:18;;;;;;;17.42;9.15;;;18.60;96.50;;;;;;4998274;28;20201;-35
2023/05/28 07:55:47;;;;;;;15.98;9.55;;;18.60;96.50;;;;;;4988032;28;20206;-35
2023/05/28 07:58:17;;;;;;;14.15;8.95;;;18.70;96.40;;;;;;4990652;28;20332;-35
2023/05/28 08:00:44;;;;;;;14.13;8.60;;;18.80;96.60;;;;;;4992306;28;20221;-36
2023/05/28 08:03:14;;;;;;;16.67;9.65;;;18.80;96.30;;;;;;4986169;28;20221;-32
2023/05/28 08:05:41;;;;;;;16.60;9.50;;;18.80;96.60;;;;;;4984433;28;20217;-32
2023/05/28 08:08:08;;;;;;;15.82;9.57;;;18.80;96.60;;;;;;4992549;28;20209;-32
2023/05/28 08:10:36;;;;;;;19.63;10.27;;;18.90;96.50;;;;;;4987311;28;20238;-32
2023/05/28 08:13:05;;;;;;;12.10;8.45;;;18.90;96.70;;;;;;4980301;28;20202;-32
2023/05/28 08:15:36;;;;;;;13.25;8.57;;;19.00;96.50;;;;;;5003502;28;20210;-32
2023/05/28 08:18:08;;;;;;;12.73;8.23;;;19.00;96.50;;;;;;5006461;28;20311;-32
2023/05/28 08:20:38;;;;;;;15.02;8.65;;;19.10;96.50;;;;;;5003550;28;20213;-32
2023/05/28 08:23:10;;;;;;;18.98;9.25;;;19.20;96.40;;;;;;4996296;28;20233;-32
2023/05/28 08:25:40;;;;;;;13.07;8.00;;;19.30;96.50;;;;;;4983896;28;20320;-32
2023/05/28 08:28:10;;;;;;;16.23;8.35;;;19.30;96.40;;;;;;4987410;28;20202;-32
2023/05/28 08:30:45;;;;;;;14.98;8.38;;;19.30;96.50;;;;;;4985409;28;20620;-33
2023/05/28 08:33:12;;;;;;;15.48;8.27;;;19.40;96.50;;;;;;4992945;28;20300;-33
2023/05/28 08:35:39;;;;;;;14.98;7.97;;;19.50;96.60;;;;;;5003127;28;20216;-33
2023/05/28 08:38:06;;;;;;;16.05;8.73;;;19.50;96.50;;;;;;4999700;28;20201;-33
2023/05/28 08:40:40;;;;;;;14.73;8.57;;;19.50;96.60;;;;;;4992517;28;20217;-32
2023/05/28 08:43:07;;;;;;;14.35;7.65;;;19.50;96.70;;;;;;4988326;28;20209;-33
2023/05/28 08:45:36;;;;;;;13.13;8.10;;;19.60;96.60;;;;;;4993334;28;20248;-33
2023/05/28 08:48:10;;;;;;;11.13;7.38;;;19.60;96.60;;;;;;4991069;28;20206;-33
2023/05/28 08:50:47;;;;;;;15.90;8.35;;;19.80;96.70;;;;;;4985726;28;20226;-33
2023/05/28 08:53:20;;;;;;;14.02;8.13;;;19.90;96.70;;;;;;4997835;28;20255;-32
2023/05/28 08:55:48;;;;;;;13.25;6.65;;;19.90;96.50;;;;;;4985991;28;20618;-32
2023/05/28 08:58:18;;;;;;;12.38;7.13;;;20.00;96.60;;;;;;4987344;28;20325;-32
2023/05/28 09:00:50;;;;;;;13.40;7.35;;;20.10;96.60;;;;;;4986840;28;20600;-33
2023/05/28 09:03:19;;;;;;;13.95;6.65;;;20.20;96.50;;;;;;4988441;28;20214;-33
2023/05/28 09:05:49;;;;;;;13.00;7.07;;;20.20;96.50;;;;;;4984552;28;20680;-33
2023/05/28 09:08:22;;;;;;;12.15;6.72;;;20.30;96.30;;;;;;4986584;28;20218;-32
2023/05/28 09:10:49;;;;;;;11.55;6.20;;;20.40;96.60;;;;;;4984089;28;20229;-33
2023/05/28 09:13:20;;;;;;;11.07;6.18;;;20.40;96.60;;;;;;5000164;28;20769;-33
2023/05/28 09:15:53;;;;;;;11.60;6.25;;;20.50;96.60;;;;;;5004903;28;20210;-33
2023/05/28 09:18:23;;;;;;;12.45;6.72;;;20.60;96.60;;;;;;4986604;28;20281;-33
2023/05/28 09:21:06;;;;;;;11.27;6.57;;;20.70;96.60;;;;;;5002454;28;20220;-32
2023/05/28 09:23:35;;;;;;;11.80;5.60;;;20.70;96.40;;;;;;5002336;28;20675;-33
2023/05/28 09:26:09;;;;;;;10.63;6.03;;;20.80;96.60;;;;;;4994257;28;20297;-33
2023/05/28 09:28:41;;;;;;;12.07;6.53;;;20.90;96.70;;;;;;4985407;28;20218;-33
2023/05/28 09:31:14;;;;;;;11.93;6.95;;;21.00;96.80;;;;;;4990588;28;20593;-33
2023/05/28 09:33:45;;;;;;;12.57;7.03;;;21.00;96.50;;;;;;4988378;28;20202;-33
2023/05/28 09:36:18;;;;;;;11.50;6.57;;;21.00;96.30;;;;;;4980241;28;20199;-33
2023/05/28 09:38:47;;;;;;;17.60;6.60;;;21.10;96.30;;;;;;4996194;28;20198;-33
2023/05/28 09:41:27;;;;;;;11.00;5.70;;;21.10;96.50;;;;;;5001442;28;20224;-32
2023/05/28 09:44:01;;;;;;;12.40;5.90;;;21.20;96.60;;;;;;4999103;28;20209;-33
2023/05/28 09:46:35;;;;;;;10.63;6.38;;;21.30;96.70;;;;;;4994227;28;20589;-32
2023/05/28 09:49:04;;;;;;;11.40;5.75;;;21.30;96.70;;;;;;4989974;28;20206;-32
2023/05/28 09:51:37;;;;;;;18.05;6.88;;;21.40;96.70;;;;;;4992160;28;20225;-34
2023/05/28 09:54:08;;;;;;;12.23;6.22;;;21.40;96.40;;;;;;5000115;28;20665;-33
2023/05/28 09:56:41;;;;;;;10.80;5.75;;;21.50;96.50;;;;;;4984010;28;20819;-33
2023/05/28 09:59:10;;;;;;;12.00;6.40;;;21.60;96.60;;;;;;4993686;28;20206;-32
2023/05/28 10:01:55;;;;;;;10.65;6.20;;;21.60;96.40;;;;;;4988712;28;20210;-33
2023/05/28 10:04:28;;;;;;;9.82;5.47;;;21.60;96.40;;;;;;4990253;28;20595;-34
2023/05/28 10:06:59;;;;;;;12.18;6.15;;;21.70;96.50;;;;;;4984457;28;20728;-34
2023/05/28 10:09:32;;;;;;;11.80;6.03;;;21.70;96.10;;;;;;4987753;28;20240;-35
2023/05/28 10:12:23;;;;;;;10.75;5.82;;;21.80;96.20;;;;;;5002189;28;20217;-33
2023/05/28 10:14:56;;;;;;;8.15;5.40;;;21.80;96.20;;;;;;4999632;28;20220;-33
2023/05/28 10:17:23;;;;;;;9.23;4.85;;;21.90;96.40;;;;;;4975015;28;20218;-34
2023/05/28 10:19:50;;;;;;;11.48;5.32;;;22.00;96.50;;;;;;4992395;28;20202;-33
2023/05/28 10:22:18;;;;;;;10.07;5.45;;;22.00;96.50;;;;;;5002963;28;20222;-34
2023/05/28 10:24:50;;;;;;;9.73;5.40;;;22.10;96.30;;;;;;4989039;28;20237;-33
2023/05/28 10:27:18;;;;;;;15.80;5.97;;;22.20;96.50;;;;;;4986985;28;20210;-33
2023/05/28 10:29:47;;;;;;;7.53;5.07;;;22.30;96.00;;;;;;4995015;28;20276;-34
2023/05/28 10:32:19;;;;;;;7.43;4.68;;;22.40;96.30;;;;;;4992295;28;20320;-33
2023/05/28 10:34:49;;;;;;;11.95;4.95;;;22.40;96.50;;;;;;4999359;28;20203;-34
2023/05/28 10:37:28;;;;;;;11.52;5.28;;;22.50;97.00;;;;;;5007074;28;20214;-34
2023/05/28 10:39:55;;;;;;;10.25;5.30;;;22.60;96.20;;;;;;4991821;28;20225;-34
2023/05/28 10:42:22;;;;;;;7.70;4.65;;;22.60;96.20;;;;;;4995411;28;20768;-34
2023/05/28 10:45:10;;;;;;;9.82;4.97;;;22.70;96.30;;;;;;4987095;28;20205;-35
2023/05/28 10:47:39;;;;;;;11.00;5.13;;;22.70;96.50;;;;;;4998546;28;20600;-34
2023/05/28 10:50:16;;;;;;;13.55;5.82;;;22.80;96.50;;;;;;4993943;28;20214;-33
2023/05/28 10:53:08;;;;;;;8.40;5.13;;;22.80;96.00;;;;;;4988544;28;20315;-34
2023/05/28 10:55:51;;;;;;;7.18;4.45;;;22.80;96.20;;;;;;4983834;28;20601;-35
2023/05/28 10:58:36;;;;;;;10.32;5.50;;;22.90;95.80;;;;;;4988923;28;20241;-34
2023/05/28 11:01:21;;;;;;;8.95;4.95;;;23.00;96.10;;;;;;4996412;28;20694;-34
2023/05/28 11:03:57;;;;;;;9.27;5.10;;;23.00;95.30;;;;;;4998283;28;20646;-35
2023/05/28 11:06:30;;;;;;;9.70;5.05;;;23.00;95.20;;;;;;4984552;28;20232;-34
2023/05/28 11:09:02;;;;;;;8.55;4.78;;;23.10;96.00;;;;;;4984944;28;20229;-34
2023/05/28 11:11:31;;;;;;;8.93;4.47;;;23.10;96.10;;;;;;5003032;28;20333;-34
2023/05/28 11:14:01;;;;;;;11.23;5.10;;;23.20;96.40;;;;;;4998300;28;20213;-34
2023/05/28 11:16:32;;;;;;;12.40;4.90;;;23.20;95.20;;;;;;4992116;28;21005;-35
2023/05/28 11:19:09;;;;;;;8.27;4.95;;;23.30;95.60;;;;;;4974468;28;20663;-34
2023/05/28 11:21:53;;;;;;;8.15;4.97;;;23.30;95.30;;;;;;5001273;28;20223;-34
2023/05/28 11:24:25;;;;;;;7.28;4.50;;;23.30;95.90;;;;;;4997712;28;20197;-34
2023/05/28 11:26:55;;;;;;;9.70;4.45;;;23.40;96.20;;;;;;4992540;28;20210;-34
2023/05/28 11:29:25;;;;;;;7.43;4.88;;;23.50;96.40;;;;;;4983321;28;20215;-35
2023/05/28 11:31:55;;;;;;;8.82;5.50;;;23.60;96.30;;;;;;4984000;28;20230;-34
2023/05/28 11:34:25;;;;;;;9.02;5.03;;;23.60;95.80;;;;;;4998598;28;20229;-34
2023/05/28 11:36:54;;;;;;;9.07;4.50;;;23.60;95.60;;;;;;4993447;28;20202;-35
2023/05/28 11:39:24;;;;;;;9.70;5.20;;;23.70;95.80;;;;;;4988880;28;20258;-34
2023/05/28 11:41:51;;;;;;;9.38;5.00;;;23.80;95.70;;;;;;4966668;28;20206;-34
2023/05/28 11:44:24;;;;;;;8.40;4.82;;;23.80;95.70;;;;;;4984046;28;20210;-34
2023/05/28 11:46:55;;;;;;;8.40;4.45;;;23.80;95.80;;;;;;4982870;28;20634;-34
2023/05/28 11:49:27;;;;;;;6.65;4.13;;;23.90;95.90;;;;;;4990448;28;20228;-35
2023/05/28 11:51:56;;;;;;;7.88;4.13;;;23.90;96.00;;;;;;4992235;28;20229;-34
2023/05/28 11:54:24;;;;;;;7.60;4.32;;;24.00;96.10;;;;;;5000251;28;20233;-35
2023/05/28 11:56:56;;;;;;;11.00;5.15;;;24.00;96.20;;;;;;5003594;28;20241;-35
2023/05/28 11:59:25;;;;;;;8.07;4.75;;;24.10;95.10;;;;;;5001060;28;20259;-35
2023/05/28 12:01:53;;;;;;;7.70;4.63;;;24.10;95.50;;;;;;5002044;28;20296;-35
2023/05/28 12:04:24;;;;;;;7.43;4.32;;;24.10;95.50;;;;;;4990648;28;20213;-33
2023/05/28 12:06:53;;;;;;;8.52;4.82;;;24.10;95.20;;;;;;4998409;28;20573;-33
2023/05/28 12:09:22;;;;;;;6.93;4.97;;;24.10;95.20;;;;;;4965497;28;20226;-34
2023/05/28 12:12:11;;;;;;;10.10;4.82;;;24.20;95.10;;;;;;4980029;28;20229;-35
2023/05/28 12:14:39;;;;;;;6.70;3.92;;;24.20;95.50;;;;;;4984139;28;20310;-36
2023/05/28 12:17:13;;;;;;;7.38;3.90;;;24.30;95.80;;;;;;5002307;28;20774;-37
2023/05/28 12:19:45;;;;;;;7.35;4.78;;;24.30;95.80;;;;;;4981438;28;20258;-37
2023/05/28 12:22:16;;;;;;;8.15;4.63;;;24.40;95.20;;;;;;4984598;28;20222;-35
2023/05/28 12:24:49;;;;;;;10.32;4.85;;;24.40;95.10;;;;;;4991442;28;20688;-37
2023/05/28 12:27:18;;;;;;;7.50;4.43;;;24.40;95.30;;;;;;4983061;28;20225;-36
2023/05/28 12:29:50;;;;;;;9.38;4.45;;;24.50;94.90;;;;;;4983761;28;20218;-35
2023/05/28 12:32:19;;;;;;;7.15;4.53;;;24.50;95.60;;;;;;4989328;28;20268;-36
2023/05/28 12:34:50;;;;;;;8.55;5.30;;;24.60;95.80;;;;;;5003869;28;20217;-35
2023/05/28 12:37:23;;;;;;;8.88;4.80;;;24.70;95.50;;;;;;5005397;28;20581;-35
2023/05/28 12:39:55;;;;;;;10.93;4.68;;;24.80;95.40;;;;;;5006097;28;20210;-35
2023/05/28 12:42:23;;;;;;;9.13;4.68;;;24.80;95.60;;;;;;4990368;28;20281;-35
2023/05/28 12:44:50;;;;;;;7.47;4.38;;;24.90;95.80;;;;;;4986778;28;20641;-35
2023/05/28 12:47:20;;;;;;;6.82;4.30;;;24.90;96.00;;;;;;4986287;28;20872;-36
2023/05/28 12:49:50;;;;;;;7.65;5.00;;;25.00;95.80;;;;;;4969324;28;20284;-36